createdAt,value
2023-02-24T00:00:28.173Z,13.57
2023-02-24T00:02:57.631Z,14.18
2023-02-24T00:05:27.156Z,13.65
2023-02-24T00:07:59.195Z,15.43
2023-02-24T00:10:28.753Z,14.05
2023-02-24T00:12:58.198Z,14.48
2023-02-24T00:15:27.676Z,14.30
2023-02-24T00:17:58.460Z,14.20
2023-02-24T00:20:28.587Z,14.95
2023-02-24T00:23:00.604Z,14.33
2023-02-24T00:25:30.036Z,15.02
2023-02-24T00:28:01.778Z,15.05
2023-02-24T00:30:33.113Z,14.02
2023-02-24T00:33:04.540Z,14.50
2023-02-24T00:35:35.037Z,14.68
2023-02-24T00:38:07.108Z,14.68
2023-02-24T00:40:38.675Z,14.90
2023-02-24T00:43:08.925Z,13.98
2023-02-24T00:45:39.255Z,13.95
2023-02-24T00:48:10.859Z,15.30
2023-02-24T00:50:40.938Z,14.90
2023-02-24T00:53:12.970Z,14.45
2023-02-24T00:55:42.459Z,14.48
2023-02-24T00:58:11.953Z,14.35
2023-02-24T01:00:43.501Z,14.23
2023-02-24T01:03:12.916Z,15.57
2023-02-24T01:05:42.435Z,14.93
2023-02-24T01:08:21.616Z,15.25
2023-02-24T01:11:18.663Z,15.35
2023-02-24T01:13:45.936Z,16.00
2023-02-24T01:16:18.752Z,15.82
2023-02-24T01:18:48.416Z,15.55
2023-02-24T01:21:18.062Z,16.40
2023-02-24T01:23:52.677Z,15.85
2023-02-24T01:26:22.661Z,16.05
2023-02-24T01:28:52.471Z,15.43
2023-02-24T01:31:23.915Z,15.73
2023-02-24T01:33:54.296Z,14.95
2023-02-24T01:36:25.548Z,15.45
2023-02-24T01:38:57.692Z,15.55
2023-02-24T01:41:27.833Z,14.90
2023-02-24T01:43:58.936Z,15.37
2023-02-24T01:49:00.674Z,15.30
2023-02-24T01:51:30.146Z,15.05
2023-02-24T01:54:02.277Z,15.43
2023-02-24T01:56:32.017Z,15.13
2023-02-24T01:59:01.641Z,14.93
2023-02-24T02:01:40.275Z,15.70
2023-02-24T02:04:14.157Z,16.10
2023-02-24T02:06:44.091Z,15.95
2023-02-24T02:09:16.924Z,16.05
2023-02-24T02:11:49.319Z,16.48
2023-02-24T02:14:19.087Z,15.70
2023-02-24T02:16:58.244Z,16.75
2023-02-24T02:19:49.104Z,16.52
2023-02-24T02:22:32.028Z,16.25
2023-02-24T02:25:04.532Z,15.88
2023-02-24T02:28:00.725Z,15.90
2023-02-24T02:31:02.148Z,16.23
2023-02-24T02:34:01.788Z,16.85
2023-02-24T02:36:36.027Z,16.30
2023-02-24T02:39:11.979Z,15.45
2023-02-24T02:41:49.058Z,15.85
2023-02-24T02:44:21.743Z,15.48
2023-02-24T02:46:52.067Z,16.10
2023-02-24T02:49:23.791Z,15.90
2023-02-24T02:51:57.774Z,16.63
2023-02-24T02:54:29.909Z,16.48
2023-02-24T02:57:01.883Z,16.92
2023-02-24T02:59:32.059Z,16.05
2023-02-24T03:02:11.674Z,16.57
2023-02-24T03:04:43.523Z,17.15
2023-02-24T03:07:16.833Z,17.45
2023-02-24T03:09:47.833Z,17.77
2023-02-24T03:12:18.672Z,17.48
2023-02-24T03:14:51.190Z,17.80
2023-02-24T03:17:22.346Z,17.90
2023-02-24T03:22:27.585Z,17.63
2023-02-24T03:24:57.628Z,17.58
2023-02-24T03:27:30.715Z,16.83
2023-02-24T03:30:01.452Z,17.55
2023-02-24T03:32:33.876Z,18.38
2023-02-24T03:35:04.584Z,18.00
2023-02-24T03:37:37.008Z,17.95
2023-02-24T03:40:11.628Z,17.50
2023-02-24T03:42:42.241Z,17.30
2023-02-24T03:45:12.663Z,17.77
2023-02-24T03:47:42.455Z,18.45
2023-02-24T03:50:14.404Z,18.75
2023-02-24T03:52:50.577Z,17.52
2023-02-24T03:55:24.256Z,16.98
2023-02-24T03:58:02.530Z,17.42
2023-02-24T04:00:37.133Z,16.42
2023-02-24T04:03:12.833Z,17.58
2023-02-24T04:05:47.686Z,17.23
2023-02-24T04:08:20.316Z,17.77
2023-02-24T04:10:52.779Z,17.85
2023-02-24T04:13:25.500Z,17.08
2023-02-24T04:15:59.002Z,17.65
2023-02-24T04:18:30.997Z,17.70
2023-02-24T04:21:01.319Z,17.52
2023-02-24T04:23:35.085Z,17.73
2023-02-24T04:26:04.544Z,17.50
2023-02-24T04:28:34.005Z,17.23
2023-02-24T04:31:06.241Z,18.40
2023-02-24T04:33:35.966Z,17.88
2023-02-24T04:36:05.570Z,18.17
2023-02-24T04:38:37.935Z,17.70
2023-02-24T04:41:08.739Z,17.88
2023-02-24T04:43:38.541Z,17.65
2023-02-24T04:46:08.142Z,18.95
2023-02-24T04:48:39.113Z,18.30
2023-02-24T04:51:08.606Z,18.50
2023-02-24T04:53:40.780Z,17.48
2023-02-24T04:56:11.160Z,18.23
2023-02-24T04:58:43.879Z,18.38
2023-02-24T05:01:13.563Z,18.48
2023-02-24T05:03:45.188Z,18.52
2023-02-24T05:06:16.709Z,18.23
2023-02-24T05:08:48.745Z,18.25
2023-02-24T05:11:19.637Z,18.30
2023-02-24T05:13:51.390Z,16.85
2023-02-24T05:16:21.033Z,16.70
2023-02-24T05:18:50.574Z,17.63
2023-02-24T05:21:32.717Z,16.95
2023-02-24T05:24:06.918Z,18.48
2023-02-24T05:26:37.348Z,17.73
2023-02-24T05:29:07.585Z,17.53
2023-02-24T05:31:37.518Z,17.25
2023-02-24T05:34:07.946Z,16.75
2023-02-24T05:36:40.226Z,17.23
2023-02-24T05:39:12.734Z,17.55
2023-02-24T05:41:42.904Z,17.95
2023-02-24T05:44:14.285Z,18.25
2023-02-24T05:46:44.872Z,17.08
2023-02-24T05:49:16.208Z,17.05
2023-02-24T05:51:54.799Z,17.67
2023-02-24T05:54:29.572Z,17.67
2023-02-24T05:57:00.598Z,17.23
2023-02-24T05:59:32.868Z,17.55
2023-02-24T06:02:07.117Z,17.55
2023-02-24T06:04:46.783Z,18.23
2023-02-24T06:07:19.411Z,17.60
2023-02-24T06:09:53.837Z,18.10
2023-02-24T06:12:23.867Z,17.33
2023-02-24T06:14:53.325Z,18.33
2023-02-24T06:17:24.417Z,18.95
2023-02-24T06:22:24.823Z,17.52
2023-02-24T06:24:57.341Z,17.52
2023-02-24T06:27:27.166Z,17.17
2023-02-24T06:29:57.706Z,18.13
2023-02-24T06:32:29.008Z,16.88
2023-02-24T06:34:59.416Z,18.25
2023-02-24T06:37:30.101Z,18.10
2023-02-24T06:40:02.129Z,17.23
2023-02-24T06:42:31.654Z,16.77
2023-02-24T06:45:01.081Z,17.58
2023-02-24T06:47:30.526Z,17.60
2023-02-24T06:49:59.992Z,17.35
2023-02-24T06:52:30.933Z,18.75
2023-02-24T06:55:04.749Z,19.15
2023-02-24T06:57:35.527Z,18.50
2023-02-24T07:00:17.022Z,18.20
2023-02-24T07:02:46.486Z,19.92
2023-02-24T07:05:17.093Z,18.55
2023-02-24T07:07:46.701Z,18.92
2023-02-24T07:10:19.299Z,18.50
2023-02-24T07:12:48.729Z,17.92
2023-02-24T07:15:18.449Z,18.48
2023-02-24T07:17:48.882Z,18.65
2023-02-24T07:20:25.384Z,19.42
2023-02-24T07:22:54.933Z,19.58
2023-02-24T07:25:34.261Z,19.58
2023-02-24T07:28:03.841Z,19.13
2023-02-24T07:30:33.593Z,19.20
2023-02-24T07:33:03.851Z,18.67
2023-02-24T07:35:33.542Z,18.57
2023-02-24T07:38:05.514Z,18.08
2023-02-24T07:40:39.026Z,18.45
2023-02-24T07:43:08.469Z,19.23
2023-02-24T07:45:38.102Z,18.85
2023-02-24T07:48:07.904Z,17.85
2023-02-24T07:50:38.073Z,17.67
2023-02-24T07:53:07.780Z,18.47
2023-02-24T07:55:40.280Z,18.83
2023-02-24T07:58:10.682Z,18.50
2023-02-24T08:00:59.557Z,18.75
2023-02-24T08:03:33.279Z,18.48
2023-02-24T08:06:15.287Z,18.35
2023-02-24T08:08:57.972Z,18.42
2023-02-24T08:11:35.769Z,18.27
2023-02-24T08:14:10.902Z,17.92
2023-02-24T08:16:42.406Z,18.20
2023-02-24T08:19:14.102Z,19.20
2023-02-24T08:21:47.461Z,17.73
2023-02-24T08:24:19.173Z,17.75
2023-02-24T08:27:04.260Z,18.67
2023-02-24T08:29:40.232Z,17.80
2023-02-24T08:32:10.004Z,18.27
2023-02-24T08:34:39.497Z,16.83
2023-02-24T08:37:08.993Z,17.55
2023-02-24T08:39:38.461Z,17.10
2023-02-24T08:42:14.287Z,17.50
2023-02-24T08:44:45.971Z,17.33
2023-02-24T08:47:21.138Z,17.77
2023-02-24T08:49:51.271Z,16.90
2023-02-24T08:52:20.725Z,16.55
2023-02-24T08:54:50.748Z,16.63
2023-02-24T08:57:26.019Z,16.83
2023-02-24T08:59:57.852Z,16.48
2023-02-24T09:02:29.441Z,15.40
2023-02-24T09:04:59.916Z,15.85
2023-02-24T09:07:30.294Z,15.45
2023-02-24T09:10:00.418Z,16.10
2023-02-24T09:12:32.672Z,15.40
2023-02-24T09:15:04.694Z,16.50
2023-02-24T09:17:50.275Z,16.25
2023-02-24T09:20:33.461Z,16.17
2023-02-24T09:23:03.802Z,15.60
2023-02-24T09:25:49.648Z,15.40
2023-02-24T09:28:24.861Z,15.05
2023-02-24T09:30:55.978Z,15.15
2023-02-24T09:33:27.019Z,14.90
2023-02-24T09:36:03.297Z,15.18
2023-02-24T09:38:45.583Z,15.60
2023-02-24T09:41:34.575Z,15.18
2023-02-24T09:44:08.289Z,14.80
2023-02-24T09:46:42.406Z,14.88
2023-02-24T09:49:17.366Z,13.85
2023-02-24T09:51:53.446Z,14.90
2023-02-24T09:54:24.533Z,14.48
2023-02-24T09:59:51.148Z,14.27
2023-02-24T10:02:27.476Z,13.73
2023-02-24T10:05:07.313Z,17.42
2023-02-24T10:07:40.393Z,14.52
2023-02-24T10:10:28.275Z,13.57
2023-02-24T10:13:01.346Z,13.63
2023-02-24T10:15:46.885Z,13.02
2023-02-24T10:18:29.861Z,12.88
2023-02-24T10:21:02.934Z,13.48
2023-02-24T10:23:35.556Z,16.02
2023-02-24T10:26:07.470Z,13.18
2023-02-24T10:28:40.093Z,13.00
2023-02-24T10:31:25.650Z,12.18
2023-02-24T10:33:58.812Z,12.50
2023-02-24T10:36:35.635Z,11.68
2023-02-24T10:39:08.532Z,10.45
2023-02-24T10:41:45.867Z,9.88
2023-02-24T10:44:16.512Z,9.80
2023-02-24T10:46:50.245Z,10.10
2023-02-24T10:49:19.902Z,10.20
2023-02-24T10:51:51.428Z,9.90
2023-02-24T10:55:05.083Z,10.90
2023-02-24T10:57:58.189Z,10.45
2023-02-24T11:00:51.879Z,7.68
2023-02-24T11:03:36.177Z,7.38
2023-02-24T11:06:30.491Z,8.00
2023-02-24T11:09:19.108Z,7.75
2023-02-24T11:12:01.580Z,7.15
2023-02-24T11:14:43.527Z,7.00
2023-02-24T11:17:27.155Z,6.90
2023-02-24T11:20:10.848Z,6.50
2023-02-24T11:22:41.677Z,7.45
2023-02-24T11:25:16.110Z,7.93
2023-02-24T11:27:45.572Z,7.80
2023-02-24T11:30:19.286Z,7.85
2023-02-24T11:32:58.724Z,7.80
2023-02-24T11:35:33.751Z,7.13
2023-02-24T11:38:06.072Z,7.25
2023-02-24T11:40:36.653Z,7.55
2023-02-24T11:43:08.444Z,6.50
2023-02-24T11:45:39.463Z,5.88
2023-02-24T11:48:15.160Z,5.68
2023-02-24T11:50:48.621Z,5.95
2023-02-24T11:53:23.019Z,5.70
2023-02-24T11:55:54.354Z,6.07
2023-02-24T11:58:26.875Z,6.30
2023-02-24T12:00:58.445Z,6.45
2023-02-24T12:03:32.165Z,5.68
2023-02-24T12:06:08.347Z,5.65
2023-02-24T12:08:38.712Z,6.13
2023-02-24T12:11:09.784Z,6.03
2023-02-24T12:16:12.984Z,5.78
2023-02-24T12:18:43.693Z,5.18
2023-02-24T12:21:17.805Z,5.90
2023-02-24T12:23:48.434Z,6.40
2023-02-24T12:26:20.608Z,5.75
2023-02-24T12:29:07.423Z,5.80
2023-02-24T12:31:41.714Z,5.72
2023-02-24T12:34:15.749Z,5.15
2023-02-24T12:37:05.603Z,4.93
2023-02-24T12:39:39.085Z,5.75
2023-02-24T12:42:13.265Z,5.10
2023-02-24T12:44:47.274Z,5.80
2023-02-24T12:47:17.598Z,5.90
2023-02-24T12:50:08.822Z,6.03
2023-02-24T12:52:46.559Z,6.13
2023-02-24T12:55:21.640Z,6.10
2023-02-24T12:57:54.000Z,5.65
2023-02-24T13:00:25.283Z,6.13
2023-02-24T13:02:58.033Z,5.68
2023-02-24T13:05:31.093Z,5.68
2023-02-24T13:08:14.029Z,6.40
2023-02-24T13:10:45.469Z,5.30
2023-02-24T13:13:17.066Z,5.40
2023-02-24T13:15:53.212Z,5.57
2023-02-24T13:18:29.995Z,7.82
2023-02-24T13:21:07.100Z,5.72
2023-02-24T13:23:39.357Z,5.85
2023-02-24T13:26:08.790Z,5.40
2023-02-24T13:28:39.166Z,5.80
2023-02-24T13:31:09.918Z,5.85
2023-02-24T13:33:40.674Z,6.00
2023-02-24T13:36:21.608Z,5.63
2023-02-24T13:38:54.417Z,5.40
2023-02-24T13:41:41.250Z,5.10
2023-02-24T13:44:26.258Z,5.40
2023-02-24T13:47:29.109Z,5.55
2023-02-24T13:50:05.618Z,6.07
2023-02-24T13:52:42.966Z,5.50
2023-02-24T13:55:23.676Z,5.70
2023-02-24T13:58:05.489Z,5.90
2023-02-24T14:00:42.025Z,5.32
2023-02-24T14:03:13.038Z,5.18
2023-02-24T14:05:46.356Z,5.50
2023-02-24T14:08:20.860Z,5.50
2023-02-24T14:10:55.331Z,5.18
2023-02-24T14:13:28.056Z,5.65
2023-02-24T14:15:57.916Z,4.97
2023-02-24T14:18:28.392Z,4.78
2023-02-24T14:20:58.864Z,5.25
2023-02-24T14:23:29.153Z,5.25
2023-02-24T14:26:03.138Z,5.38
2023-02-24T14:28:33.914Z,4.75
2023-02-24T14:31:05.500Z,4.35
2023-02-24T14:33:37.216Z,4.15
2023-02-24T14:36:07.259Z,3.90
2023-02-24T14:38:37.943Z,4.00
2023-02-24T14:41:17.762Z,4.10
2023-02-24T14:43:47.214Z,4.00
2023-02-24T14:46:16.734Z,3.97
2023-02-24T14:48:46.326Z,4.00
2023-02-24T14:51:18.555Z,4.10
2023-02-24T14:53:50.899Z,4.10
2023-02-24T14:56:23.433Z,4.03
2023-02-24T14:58:54.680Z,4.38
2023-02-24T15:01:25.014Z,4.22
2023-02-24T15:03:55.292Z,4.10
2023-02-24T15:06:26.326Z,3.63
2023-02-24T15:08:58.940Z,3.65
2023-02-24T15:11:32.295Z,3.67
2023-02-24T15:14:03.270Z,3.72
2023-02-24T15:16:36.134Z,3.40
2023-02-24T15:19:05.673Z,3.45
2023-02-24T15:21:35.837Z,4.00
2023-02-24T15:24:06.569Z,3.73
2023-02-24T15:26:38.811Z,4.20
2023-02-24T15:29:15.768Z,3.83
2023-02-24T15:31:49.604Z,3.80
2023-02-24T15:34:20.501Z,4.35
2023-02-24T15:36:51.256Z,3.60
2023-02-24T15:39:23.462Z,3.58
2023-02-24T15:41:55.804Z,4.20
2023-02-24T15:44:30.065Z,3.72
2023-02-24T15:46:59.939Z,3.78
2023-02-24T15:49:29.854Z,4.53
2023-02-24T15:52:04.101Z,3.85
2023-02-24T15:54:35.154Z,3.90
2023-02-24T15:59:37.271Z,3.78
2023-02-24T16:02:12.071Z,3.80
2023-02-24T16:04:41.762Z,3.70
2023-02-24T16:07:12.752Z,3.85
2023-02-24T16:09:43.105Z,4.15
2023-02-24T16:12:16.550Z,3.60
2023-02-24T16:14:46.061Z,3.80
2023-02-24T16:17:21.681Z,3.63
2023-02-24T16:19:51.937Z,3.90
2023-02-24T16:22:21.410Z,4.20
2023-02-24T16:24:50.995Z,3.25
2023-02-24T16:27:26.036Z,3.20
2023-02-24T16:29:56.253Z,2.90
2023-02-24T16:32:26.139Z,2.80
2023-02-24T16:34:56.391Z,3.67
2023-02-24T16:37:28.445Z,3.20
2023-02-24T16:39:57.934Z,3.00
2023-02-24T16:42:30.078Z,3.20
2023-02-24T16:44:59.690Z,3.53
2023-02-24T16:47:29.268Z,3.60
2023-02-24T16:49:58.958Z,3.00
2023-02-24T16:52:28.690Z,3.30
2023-02-24T16:54:59.325Z,3.20
2023-02-24T16:57:31.365Z,3.70
2023-02-24T17:00:00.831Z,3.33
2023-02-24T17:02:30.285Z,4.20
2023-02-24T17:04:59.764Z,3.72
2023-02-24T17:07:29.274Z,3.45
2023-02-24T17:09:58.807Z,3.30
2023-02-24T17:12:31.160Z,3.47
2023-02-24T17:15:00.693Z,3.45
2023-02-24T17:17:30.434Z,3.90
2023-02-24T17:19:59.924Z,4.07
2023-02-24T17:22:29.385Z,3.58
2023-02-24T17:24:58.853Z,3.40
2023-02-24T17:27:30.907Z,3.78
2023-02-24T17:30:00.443Z,3.78
2023-02-24T17:32:29.983Z,4.88
2023-02-24T17:34:59.673Z,3.67
2023-02-24T17:37:29.346Z,4.95
2023-02-24T17:39:58.874Z,4.80
2023-02-24T17:42:30.932Z,3.90
2023-02-24T17:45:00.505Z,4.63
2023-02-24T17:47:30.028Z,4.05
2023-02-24T17:49:59.576Z,4.35
2023-02-24T17:52:29.475Z,5.97
2023-02-24T17:54:59.386Z,4.55
2023-02-24T17:57:32.343Z,5.00
2023-02-24T18:00:01.918Z,4.50
2023-02-24T18:02:31.648Z,3.85
2023-02-24T18:05:02.173Z,4.60
2023-02-24T18:07:31.664Z,4.05
2023-02-24T18:10:01.370Z,3.40
2023-02-24T18:12:33.513Z,3.60
2023-02-24T18:15:08.700Z,3.72
2023-02-24T18:17:38.658Z,3.40
2023-02-24T18:20:09.430Z,3.63
2023-02-24T18:22:39.041Z,3.83
2023-02-24T18:25:09.541Z,3.75
2023-02-24T18:27:41.790Z,5.78
2023-02-24T18:30:13.279Z,5.45
2023-02-24T18:32:44.878Z,4.30
2023-02-24T18:35:15.950Z,4.38
2023-02-24T18:37:45.578Z,4.45
2023-02-24T18:40:15.773Z,3.70
2023-02-24T18:42:47.812Z,4.00
2023-02-24T18:45:17.554Z,4.22
2023-02-24T18:47:47.221Z,4.10
2023-02-24T18:50:17.252Z,4.25
2023-02-24T18:52:46.735Z,4.00
2023-02-24T18:55:16.233Z,4.00
2023-02-24T18:57:48.594Z,4.25
2023-02-24T19:00:19.360Z,12.50
2023-02-24T19:02:49.501Z,5.15
2023-02-24T19:05:20.512Z,4.27
2023-02-24T19:07:50.006Z,4.50
2023-02-24T19:10:20.436Z,9.48
2023-02-24T19:12:52.441Z,8.02
2023-02-24T19:15:22.486Z,4.75
2023-02-24T19:17:51.952Z,4.43
2023-02-24T19:20:21.909Z,5.03
2023-02-24T19:22:51.754Z,5.18
2023-02-24T19:25:21.434Z,5.07
2023-02-24T19:27:55.485Z,5.45
2023-02-24T19:30:24.920Z,6.18
2023-02-24T19:32:54.423Z,13.07
2023-02-24T19:35:24.282Z,6.28
2023-02-24T19:37:53.745Z,6.38
2023-02-24T19:40:23.583Z,5.68
2023-02-24T19:42:55.636Z,6.15
2023-02-24T19:45:25.318Z,5.90
2023-02-24T19:47:54.971Z,5.80
2023-02-24T19:50:24.453Z,6.13
2023-02-24T19:52:53.891Z,5.70
2023-02-24T19:55:23.345Z,6.18
2023-02-24T19:57:58.293Z,6.50
2023-02-24T20:00:28.298Z,6.53
2023-02-24T20:02:57.773Z,5.97
2023-02-24T20:05:27.499Z,6.28
2023-02-24T20:07:57.058Z,5.57
2023-02-24T20:10:26.505Z,5.88
2023-02-24T20:12:58.557Z,6.50
2023-02-24T20:15:28.013Z,5.90
2023-02-24T20:17:59.222Z,6.30
2023-02-24T20:22:57.907Z,6.13
2023-02-24T20:25:27.356Z,6.30
2023-02-24T20:27:59.392Z,5.95
2023-02-24T20:30:28.822Z,6.47
2023-02-24T20:32:59.635Z,6.75
2023-02-24T20:35:29.176Z,6.75
2023-02-24T20:37:58.656Z,6.35
2023-02-24T20:40:28.140Z,6.43
2023-02-24T20:43:00.259Z,6.00
2023-02-24T20:45:30.758Z,5.75
2023-02-24T20:48:00.517Z,5.53
2023-02-24T20:50:30.027Z,5.65
2023-02-24T20:52:59.463Z,6.55
2023-02-24T20:55:28.885Z,5.72
2023-02-24T20:58:00.943Z,5.95
2023-02-24T21:00:30.404Z,6.60
2023-02-24T21:03:00.096Z,6.30
2023-02-24T21:05:29.657Z,6.25
2023-02-24T21:07:59.096Z,5.68
2023-02-24T21:10:28.590Z,5.85
2023-02-24T21:13:00.586Z,6.50
2023-02-24T21:15:30.073Z,6.32
2023-02-24T21:17:59.528Z,5.90
2023-02-24T21:20:28.940Z,6.47
2023-02-24T21:22:58.512Z,6.43
2023-02-24T21:25:27.923Z,6.38
2023-02-24T21:27:59.969Z,5.75
2023-02-24T21:30:29.400Z,6.80
2023-02-24T21:32:58.884Z,5.50
2023-02-24T21:35:28.360Z,6.65
2023-02-24T21:37:57.796Z,6.60
2023-02-24T21:40:27.268Z,6.05
2023-02-24T21:42:56.704Z,4.72
2023-02-24T21:45:29.426Z,5.50
2023-02-24T21:47:58.905Z,5.30
2023-02-24T21:50:28.365Z,5.05
2023-02-24T21:52:57.886Z,5.38
2023-02-24T21:55:27.593Z,5.15
2023-02-24T21:57:57.218Z,4.10
2023-02-24T22:00:30.281Z,3.70
2023-02-24T22:02:59.811Z,3.00
2023-02-24T22:05:29.425Z,2.90
2023-02-24T22:07:59.457Z,2.90
2023-02-24T22:10:28.904Z,3.08
2023-02-24T22:12:58.958Z,3.10
2023-02-24T22:15:31.246Z,3.00
2023-02-24T22:18:00.688Z,3.40
2023-02-24T22:20:30.194Z,3.60
2023-02-24T22:22:59.721Z,4.20
2023-02-24T22:25:29.275Z,3.90
2023-02-24T22:27:58.712Z,4.25
2023-02-24T22:30:30.942Z,4.20
2023-02-24T22:33:00.370Z,4.43
2023-02-24T22:35:29.836Z,4.70
2023-02-24T22:37:59.614Z,4.93
2023-02-24T22:40:29.125Z,4.50
2023-02-24T22:42:58.588Z,4.40
2023-02-24T22:45:28.065Z,4.20
2023-02-24T22:48:00.736Z,4.65
2023-02-24T22:50:30.175Z,3.97
2023-02-24T22:52:59.784Z,4.70
2023-02-24T22:55:29.410Z,4.47
2023-02-24T22:57:58.903Z,5.10
2023-02-24T23:00:28.434Z,5.00
2023-02-24T23:03:00.454Z,4.70
2023-02-24T23:05:29.971Z,4.03
2023-02-24T23:08:02.516Z,4.20
2023-02-24T23:10:35.341Z,4.20
2023-02-24T23:13:04.938Z,4.05
2023-02-24T23:15:39.047Z,3.95
2023-02-24T23:18:11.129Z,4.00
2023-02-24T23:20:40.581Z,3.90
2023-02-24T23:23:10.667Z,4.10
2023-02-24T23:25:40.152Z,4.20
2023-02-24T23:28:09.630Z,4.20
2023-02-24T23:30:43.411Z,4.03
2023-02-24T23:33:15.704Z,4.25
2023-02-24T23:35:45.279Z,4.32
2023-02-24T23:38:14.798Z,4.30
2023-02-24T23:40:50.018Z,4.47
2023-02-24T23:43:20.236Z,4.20
2023-02-24T23:45:49.983Z,4.70
2023-02-24T23:48:22.320Z,4.28
2023-02-24T23:50:55.465Z,4.40
2023-02-24T23:53:24.922Z,4.40
2023-02-24T23:55:54.311Z,4.93
2023-02-24T23:58:24.480Z,4.53
